createdAt,value
2019-02-23T00:01:16.655Z,11.53
2019-02-23T00:03:47.679Z,13.30
2019-02-23T00:06:29.017Z,12.67
2019-02-23T00:08:50.640Z,11.17
2019-02-23T00:11:21.611Z,11.17
2019-02-23T00:13:52.149Z,12.60
2019-02-23T00:16:22.883Z,17.50
2019-02-23T00:18:53.332Z,9.70
2019-02-23T00:21:24.073Z,16.67
2019-02-23T00:23:54.700Z,13.00
2019-02-23T00:26:25.482Z,12.00
2019-02-23T00:28:55.993Z,12.77
2019-02-23T00:31:26.895Z,13.30
2019-02-23T00:33:57.895Z,11.80
2019-02-23T00:36:28.523Z,12.87
2019-02-23T00:38:59.200Z,12.60
2019-02-23T00:41:29.824Z,15.23
2019-02-23T00:44:01.799Z,14.93
2019-02-23T00:46:32.513Z,14.57
2019-02-23T00:49:03.373Z,13.87
2019-02-23T00:51:33.896Z,13.03
2019-02-23T00:54:04.686Z,13.43
2019-02-23T00:56:35.166Z,14.40
2019-02-23T00:59:07.409Z,15.03
2019-02-23T01:01:38.263Z,13.70
2019-02-23T01:04:08.955Z,13.60
2019-02-23T01:06:39.503Z,13.40
2019-02-23T01:09:10.292Z,14.13
2019-02-23T01:11:41.091Z,12.47
2019-02-23T01:14:11.932Z,14.70
2019-02-23T01:16:42.848Z,11.73
2019-02-23T01:19:13.604Z,13.17
2019-02-23T01:21:44.119Z,14.93
2019-02-23T01:24:14.549Z,10.50
2019-02-23T01:26:45.340Z,12.57
2019-02-23T01:29:16.941Z,12.30
2019-02-23T01:31:47.703Z,13.57
2019-02-23T01:34:18.246Z,14.10
2019-02-23T01:36:48.812Z,10.87
2019-02-23T01:39:19.709Z,9.70
2019-02-23T01:41:50.536Z,11.23
2019-02-23T01:44:22.322Z,13.27
2019-02-23T01:46:55.221Z,13.80
2019-02-23T01:49:25.805Z,10.47
2019-02-23T01:51:56.541Z,12.23
2019-02-23T01:54:27.227Z,11.87
2019-02-23T01:56:57.713Z,12.30
2019-02-23T01:59:28.743Z,12.30
2019-02-23T02:02:00.671Z,12.53
2019-02-23T02:04:31.602Z,12.03
2019-02-23T02:07:02.653Z,11.47
2019-02-23T02:09:33.414Z,12.03
2019-02-23T02:12:04.213Z,11.70
2019-02-23T02:14:34.972Z,10.67
2019-02-23T02:17:05.926Z,10.63
2019-02-23T02:19:36.548Z,10.47
2019-02-23T02:22:07.272Z,12.77
2019-02-23T02:24:37.898Z,13.60
2019-02-23T02:27:08.470Z,15.53
2019-02-23T02:29:39.192Z,15.13
2019-02-23T02:32:09.920Z,12.33
2019-02-23T02:34:40.875Z,11.40
2019-02-23T02:37:11.403Z,15.13
2019-02-23T02:39:42.403Z,10.87
2019-02-23T02:42:13.332Z,15.40
2019-02-23T02:44:44.409Z,12.93
2019-02-23T02:47:15.431Z,11.47
2019-02-23T02:49:46.075Z,10.13
2019-02-23T02:52:16.667Z,9.50
2019-02-23T02:54:49.024Z,12.57
2019-02-23T02:57:19.890Z,11.73
2019-02-23T02:59:50.487Z,13.23
2019-02-23T03:02:21.341Z,11.13
2019-02-23T03:04:51.872Z,12.07
2019-02-23T03:07:22.273Z,14.27
2019-02-23T03:09:53.195Z,10.50
2019-02-23T03:12:24.000Z,13.83
2019-02-23T03:14:54.630Z,10.37
2019-02-23T03:17:25.519Z,11.27
2019-02-23T03:19:56.324Z,12.10
2019-02-23T03:22:27.140Z,12.67
2019-02-23T03:24:57.787Z,12.90
2019-02-23T03:27:28.480Z,14.43
2019-02-23T03:29:59.054Z,10.97
2019-02-23T03:32:29.929Z,12.50
2019-02-23T03:35:00.414Z,11.80
2019-02-23T03:37:31.538Z,13.10
2019-02-23T03:40:03.523Z,11.60
2019-02-23T03:42:33.828Z,12.93
2019-02-23T03:45:08.502Z,14.20
2019-02-23T03:47:41.862Z,12.83
2019-02-23T03:50:14.155Z,11.50
2019-02-23T03:52:44.914Z,13.10
2019-02-23T03:55:17.020Z,14.83
2019-02-23T03:57:47.836Z,14.97
2019-02-23T04:00:20.081Z,12.33
2019-02-23T04:02:50.718Z,17.10
2019-02-23T04:05:21.386Z,17.70
2019-02-23T04:07:52.218Z,14.37
2019-02-23T04:10:24.649Z,16.07
2019-02-23T04:12:55.427Z,15.00
2019-02-23T04:15:26.105Z,17.83
2019-02-23T04:17:56.965Z,15.77
2019-02-23T04:20:27.792Z,17.10
2019-02-23T04:22:58.850Z,17.00
2019-02-23T04:25:29.568Z,18.33
2019-02-23T04:28:00.228Z,13.83
2019-02-23T04:30:30.652Z,18.17
2019-02-23T04:33:01.752Z,15.37
2019-02-23T04:35:32.288Z,15.90
2019-02-23T04:38:03.255Z,18.17
2019-02-23T04:40:35.292Z,17.83
2019-02-23T04:43:10.200Z,18.90
2019-02-23T04:45:42.108Z,17.90
2019-02-23T04:48:12.697Z,18.43
2019-02-23T04:50:43.152Z,20.67
2019-02-23T04:53:13.684Z,19.17
2019-02-23T04:55:44.244Z,18.33
2019-02-23T04:58:14.801Z,17.10
2019-02-23T05:00:45.364Z,18.13
2019-02-23T05:03:16.011Z,17.87
2019-02-23T05:05:46.636Z,21.13
2019-02-23T05:08:17.224Z,21.40
2019-02-23T05:10:47.880Z,17.97
2019-02-23T05:13:18.328Z,18.73
2019-02-23T05:15:49.130Z,21.57
2019-02-23T05:18:19.756Z,21.17
2019-02-23T05:20:50.306Z,23.33
2019-02-23T05:23:20.705Z,22.43
2019-02-23T05:25:51.359Z,20.07
2019-02-23T05:28:22.244Z,20.40
2019-02-23T05:30:52.618Z,21.13
2019-02-23T05:33:22.959Z,21.73
2019-02-23T05:35:53.358Z,19.27
2019-02-23T05:38:23.933Z,22.00
2019-02-23T05:40:54.440Z,24.00
2019-02-23T05:43:24.977Z,21.70
2019-02-23T05:45:55.934Z,22.30
2019-02-23T05:48:26.302Z,19.67
2019-02-23T05:50:56.736Z,24.53
2019-02-23T05:53:30.498Z,23.60
2019-02-23T05:56:00.784Z,25.27
2019-02-23T05:58:31.026Z,21.70
2019-02-23T06:01:01.309Z,22.33
2019-02-23T06:03:31.654Z,23.17
2019-02-23T06:06:02.092Z,22.90
2019-02-23T06:08:32.532Z,23.37
2019-02-23T06:11:02.811Z,26.17
2019-02-23T06:13:33.439Z,23.73
2019-02-23T06:16:04.587Z,22.43
2019-02-23T06:18:35.401Z,23.33
2019-02-23T06:21:06.041Z,26.23
2019-02-23T06:23:36.793Z,23.43
2019-02-23T06:26:08.185Z,25.43
2019-02-23T06:28:38.758Z,24.97
2019-02-23T06:31:09.835Z,27.87
2019-02-23T06:33:40.843Z,23.47
2019-02-23T06:36:14.637Z,28.77
2019-02-23T06:38:45.680Z,28.57
2019-02-23T06:41:16.985Z,29.07
2019-02-23T06:43:51.847Z,27.53
2019-02-23T06:46:23.129Z,27.67
2019-02-23T06:48:54.055Z,30.00
2019-02-23T06:51:25.175Z,33.20
2019-02-23T06:53:56.275Z,27.03
2019-02-23T06:56:27.521Z,31.40
2019-02-23T06:58:58.781Z,30.27
2019-02-23T07:01:29.577Z,26.90
2019-02-23T07:04:00.918Z,27.27
2019-02-23T07:06:32.191Z,23.97
2019-02-23T07:09:04.397Z,27.30
2019-02-23T07:11:36.153Z,24.80
2019-02-23T07:14:07.786Z,26.77
2019-02-23T07:16:39.109Z,24.50
2019-02-23T07:19:10.366Z,29.20
2019-02-23T07:21:41.551Z,27.60
2019-02-23T07:24:13.091Z,31.53
2019-02-23T07:26:44.387Z,29.50
2019-02-23T07:29:15.738Z,29.87
2019-02-23T07:31:47.098Z,29.87
2019-02-23T07:34:18.312Z,29.60
2019-02-23T07:36:49.511Z,34.93
2019-02-23T07:39:20.811Z,34.40
2019-02-23T07:41:52.239Z,27.97
2019-02-23T07:44:23.439Z,29.00
2019-02-23T07:46:54.265Z,29.90
2019-02-23T07:49:25.328Z,24.50
2019-02-23T07:51:57.909Z,26.03
2019-02-23T07:54:29.267Z,29.43
2019-02-23T07:57:21.955Z,32.33
2019-02-23T07:59:53.495Z,27.07
2019-02-23T08:02:27.618Z,30.97
2019-02-23T08:04:59.026Z,27.17
2019-02-23T08:07:30.084Z,26.13
2019-02-23T08:10:01.217Z,23.80
2019-02-23T08:12:32.689Z,28.20
2019-02-23T08:15:03.836Z,28.77
2019-02-23T08:17:35.036Z,29.97
2019-02-23T08:20:06.194Z,30.53
2019-02-23T08:22:37.725Z,28.27
2019-02-23T08:25:09.028Z,30.53
2019-02-23T08:27:39.797Z,30.53
2019-02-23T08:30:12.119Z,27.43
2019-02-23T08:32:43.096Z,28.27
2019-02-23T08:35:13.747Z,27.63
2019-02-23T08:37:44.967Z,24.47
2019-02-23T08:40:16.287Z,27.03
2019-02-23T08:42:47.538Z,26.33
2019-02-23T08:45:19.295Z,27.20
2019-02-23T08:47:51.054Z,28.43
2019-02-23T08:50:22.660Z,27.50
2019-02-23T08:52:53.692Z,26.53
2019-02-23T08:55:27.629Z,25.07
2019-02-23T08:57:57.558Z,24.63
2019-02-23T09:00:30.781Z,26.63
2019-02-23T09:03:02.000Z,25.63
2019-02-23T09:05:35.024Z,25.13
2019-02-23T09:08:05.891Z,22.67
2019-02-23T09:10:36.980Z,20.93
2019-02-23T09:13:07.745Z,17.60
2019-02-23T09:15:39.283Z,11.70
2019-02-23T09:18:10.478Z,20.23
2019-02-23T09:20:41.920Z,20.63
2019-02-23T09:23:13.501Z,19.87
2019-02-23T09:25:47.436Z,21.43
2019-02-23T09:28:18.584Z,22.03
2019-02-23T09:30:49.504Z,18.47
2019-02-23T09:33:20.552Z,13.97
2019-02-23T09:35:54.948Z,16.60
2019-02-23T09:38:26.282Z,18.63
2019-02-23T09:40:57.679Z,22.43
2019-02-23T09:43:28.554Z,19.77
2019-02-23T09:46:00.330Z,18.43
2019-02-23T09:48:35.203Z,23.00
2019-02-23T09:51:06.320Z,19.50
2019-02-23T09:53:40.390Z,17.83
2019-02-23T09:56:11.254Z,19.20
2019-02-23T09:58:41.956Z,18.57
2019-02-23T10:01:13.354Z,18.30
2019-02-23T10:03:44.536Z,18.97
2019-02-23T10:06:15.355Z,17.03
2019-02-23T10:08:49.716Z,17.13
2019-02-23T10:11:20.790Z,16.43
2019-02-23T10:13:51.944Z,19.87
2019-02-23T10:16:22.816Z,19.83
2019-02-23T10:18:56.934Z,20.73
2019-02-23T10:21:29.362Z,17.83
2019-02-23T10:24:00.209Z,19.00
2019-02-23T10:26:31.538Z,17.67
2019-02-23T10:29:02.639Z,15.93
2019-02-23T10:31:33.338Z,17.20
2019-02-23T10:34:04.538Z,18.63
2019-02-23T10:36:35.716Z,17.80
2019-02-23T10:39:07.361Z,18.47
2019-02-23T10:41:38.320Z,17.90
2019-02-23T10:44:09.380Z,15.77
2019-02-23T10:46:40.340Z,17.10
2019-02-23T10:49:11.270Z,17.47
2019-02-23T10:51:42.737Z,17.43
2019-02-23T10:54:13.826Z,17.40
2019-02-23T10:56:44.454Z,15.20
2019-02-23T10:59:16.090Z,17.47
2019-02-23T11:01:47.292Z,16.57
2019-02-23T11:04:26.210Z,17.23
2019-02-23T11:07:00.344Z,15.83
2019-02-23T11:09:34.066Z,17.90
2019-02-23T11:12:05.327Z,16.63
2019-02-23T11:14:39.732Z,15.90
2019-02-23T11:17:11.779Z,20.60
2019-02-23T11:19:42.972Z,16.80
2019-02-23T11:22:14.002Z,15.77
2019-02-23T11:24:45.203Z,19.57
2019-02-23T11:27:16.807Z,16.87
2019-02-23T11:29:47.880Z,14.43
2019-02-23T11:32:19.050Z,14.17
2019-02-23T11:34:50.116Z,15.83
2019-02-23T11:37:23.728Z,16.33
2019-02-23T11:39:55.039Z,15.80
2019-02-23T11:42:26.336Z,16.13
2019-02-23T11:44:57.673Z,16.67
2019-02-23T11:47:28.792Z,16.97
2019-02-23T11:50:00.402Z,16.50
2019-02-23T11:52:31.185Z,15.77
2019-02-23T11:55:02.759Z,15.63
2019-02-23T11:57:33.830Z,17.20
2019-02-23T12:00:05.179Z,16.53
2019-02-23T12:02:36.909Z,17.57
2019-02-23T12:05:08.299Z,16.67
2019-02-23T12:07:39.319Z,15.20
2019-02-23T12:10:12.176Z,14.03
2019-02-23T12:12:43.332Z,18.30
2019-02-23T12:15:14.565Z,16.10
2019-02-23T12:17:46.186Z,14.20
2019-02-23T12:20:18.154Z,15.80
2019-02-23T12:22:49.341Z,13.77
2019-02-23T12:25:20.560Z,16.13
2019-02-23T12:27:51.855Z,18.77
2019-02-23T12:30:23.079Z,13.53
2019-02-23T12:32:54.428Z,16.00
2019-02-23T12:35:27.101Z,9.70
2019-02-23T12:37:57.857Z,14.47
2019-02-23T12:40:29.082Z,13.90
2019-02-23T12:43:00.381Z,14.83
2019-02-23T12:45:32.794Z,15.63
2019-02-23T12:48:03.949Z,14.10
2019-02-23T12:50:34.941Z,12.80
2019-02-23T12:53:05.845Z,18.43
2019-02-23T12:55:37.083Z,14.10
2019-02-23T12:58:07.944Z,14.33
2019-02-23T13:00:38.740Z,14.00
2019-02-23T13:03:09.530Z,13.10
2019-02-23T13:05:42.669Z,13.90
2019-02-23T13:08:14.036Z,16.93
2019-02-23T13:10:44.870Z,18.63
2019-02-23T13:13:37.142Z,14.70
2019-02-23T13:16:42.151Z,17.13
2019-02-23T13:20:08.207Z,13.47
2019-02-23T13:23:12.524Z,15.60
2019-02-23T13:26:33.405Z,14.20
2019-02-23T13:29:24.510Z,14.00
2019-02-23T13:32:27.085Z,11.87
2019-02-23T13:35:34.465Z,14.03
2019-02-23T13:38:48.861Z,12.87
2019-02-23T13:42:05.561Z,16.73
2019-02-23T13:45:00.048Z,15.80
2019-02-23T13:48:01.859Z,16.10
2019-02-23T13:51:11.114Z,16.23
2019-02-23T13:54:26.515Z,13.47
2019-02-23T13:57:19.467Z,13.63
2019-02-23T14:00:12.718Z,17.60
2019-02-23T14:03:30.895Z,16.40
2019-02-23T14:06:37.896Z,14.23
2019-02-23T14:09:48.419Z,12.60
2019-02-23T14:12:48.264Z,12.10
2019-02-23T14:15:41.433Z,8.40
2019-02-23T14:18:39.566Z,9.97
2019-02-23T14:21:52.896Z,8.87
2019-02-23T14:24:50.223Z,7.43
2019-02-23T14:27:33.228Z,9.77
2019-02-23T14:30:48.129Z,9.47
2019-02-23T14:34:05.651Z,9.17
2019-02-23T14:36:47.623Z,7.67
2019-02-23T14:39:56.833Z,6.23
2019-02-23T14:43:20.951Z,8.53
2019-02-23T14:46:31.472Z,7.77
2019-02-23T14:49:44.401Z,10.70
2019-02-23T14:53:03.034Z,10.50
2019-02-23T14:56:09.020Z,8.10
2019-02-23T14:59:24.442Z,8.97
2019-02-23T15:02:25.829Z,6.20
2019-02-23T15:05:35.111Z,7.63
2019-02-23T15:08:34.527Z,7.37
2019-02-23T15:11:53.301Z,9.27
2019-02-23T15:14:42.444Z,5.37
2019-02-23T15:17:50.285Z,9.47
2019-02-23T15:20:40.089Z,8.07
2019-02-23T15:23:45.289Z,12.87
2019-02-23T15:27:00.405Z,9.73
2019-02-23T15:29:40.949Z,11.60
2019-02-23T15:32:39.664Z,9.47
2019-02-23T15:35:52.397Z,10.50
2019-02-23T15:38:53.293Z,11.97
2019-02-23T15:42:02.204Z,9.77
2019-02-23T15:45:12.680Z,7.30
2019-02-23T15:47:55.941Z,9.27
2019-02-23T15:50:27.833Z,16.67
2019-02-23T15:52:58.846Z,14.67
2019-02-23T15:55:29.975Z,10.93
2019-02-23T15:58:00.911Z,11.93
2019-02-23T16:00:34.920Z,13.97
2019-02-23T16:03:04.495Z,10.47
2019-02-23T16:05:37.189Z,10.97
2019-02-23T16:08:08.219Z,15.27
2019-02-23T16:10:39.022Z,11.57
2019-02-23T16:13:09.926Z,13.20
2019-02-23T16:15:40.880Z,10.70
2019-02-23T16:18:12.414Z,12.23
2019-02-23T16:20:43.102Z,12.13
2019-02-23T16:23:13.877Z,12.17
2019-02-23T16:25:45.164Z,11.23
2019-02-23T16:28:16.483Z,10.30
2019-02-23T16:30:47.635Z,12.37
2019-02-23T16:33:18.640Z,13.83
2019-02-23T16:35:49.517Z,15.43
2019-02-23T16:38:21.119Z,16.60
2019-02-23T16:40:52.434Z,14.10
2019-02-23T16:43:23.108Z,11.87
2019-02-23T16:45:53.967Z,15.83
2019-02-23T16:48:27.363Z,13.00
2019-02-23T16:50:58.076Z,13.90
2019-02-23T16:53:29.345Z,12.90
2019-02-23T16:55:59.742Z,14.83
2019-02-23T16:58:32.330Z,13.33
2019-02-23T17:01:04.425Z,12.87
2019-02-23T17:03:34.833Z,15.27
2019-02-23T17:06:05.320Z,15.83
2019-02-23T17:08:35.652Z,14.10
2019-02-23T17:11:06.010Z,15.87
2019-02-23T17:13:38.839Z,16.60
2019-02-23T17:16:09.180Z,14.73
2019-02-23T17:18:39.853Z,17.40
2019-02-23T17:21:10.206Z,17.83
2019-02-23T17:23:40.698Z,16.03
2019-02-23T17:26:11.414Z,17.07
2019-02-23T17:28:42.076Z,19.90
2019-02-23T17:31:12.540Z,14.30
2019-02-23T17:33:43.344Z,17.90
2019-02-23T17:36:14.071Z,17.37
2019-02-23T17:38:45.023Z,17.13
2019-02-23T17:41:16.008Z,17.63
2019-02-23T17:43:46.945Z,19.10
2019-02-23T17:46:19.388Z,19.03
2019-02-23T17:48:50.244Z,20.33
2019-02-23T17:51:21.146Z,19.93
2019-02-23T17:53:51.939Z,19.50
2019-02-23T17:56:22.463Z,17.53
2019-02-23T17:58:53.267Z,21.27
2019-02-23T18:01:25.463Z,21.50
2019-02-23T18:03:56.098Z,19.20
2019-02-23T18:06:26.947Z,18.97
2019-02-23T18:08:57.798Z,19.03
2019-02-23T18:11:28.484Z,17.43
2019-02-23T18:13:59.210Z,18.70
2019-02-23T18:16:29.903Z,16.80
2019-02-23T18:19:01.476Z,15.53
2019-02-23T18:21:31.920Z,18.60
2019-02-23T18:24:02.432Z,19.47
2019-02-23T18:26:32.982Z,21.07
2019-02-23T18:29:03.895Z,19.10
2019-02-23T18:31:34.695Z,19.20
2019-02-23T18:34:05.494Z,20.80
2019-02-23T18:36:36.754Z,17.23
2019-02-23T18:39:07.370Z,19.30
2019-02-23T18:41:38.036Z,20.40
2019-02-23T18:44:08.527Z,18.57
2019-02-23T18:46:39.386Z,19.73
2019-02-23T18:49:11.798Z,18.90
2019-02-23T18:51:42.366Z,17.80
2019-02-23T18:54:14.740Z,17.97
2019-02-23T18:56:45.440Z,17.97
2019-02-23T18:59:15.936Z,20.00
2019-02-23T19:01:46.988Z,21.33
2019-02-23T19:04:18.462Z,19.93
2019-02-23T19:06:49.026Z,16.57
2019-02-23T19:09:19.651Z,18.30
2019-02-23T19:11:50.394Z,19.57
2019-02-23T19:14:21.092Z,21.80
2019-02-23T19:16:51.914Z,20.20
2019-02-23T19:19:22.545Z,20.03
2019-02-23T19:21:53.430Z,22.00
2019-02-23T19:24:24.403Z,21.23
2019-02-23T19:26:54.838Z,22.37
2019-02-23T19:29:25.788Z,22.80
2019-02-23T19:31:57.802Z,18.60
2019-02-23T19:34:29.071Z,20.20
2019-02-23T19:36:59.814Z,23.17
2019-02-23T19:39:30.394Z,19.63
2019-02-23T19:42:01.972Z,19.83
2019-02-23T19:44:32.741Z,17.53
2019-02-23T19:47:09.111Z,22.60
2019-02-23T19:49:39.752Z,20.83
2019-02-23T19:52:10.308Z,20.57
2019-02-23T19:54:42.156Z,19.60
2019-02-23T19:57:12.816Z,18.60
2019-02-23T19:59:43.446Z,22.27
2019-02-23T20:02:17.113Z,21.03
2019-02-23T20:04:47.955Z,34.33
2019-02-23T20:07:21.927Z,26.23
2019-02-23T20:09:52.540Z,28.97
2019-02-23T20:12:23.138Z,23.10
2019-02-23T20:14:53.670Z,23.13
2019-02-23T20:17:25.133Z,19.67
2019-02-23T20:19:56.411Z,21.43
2019-02-23T20:22:27.338Z,23.30
2019-02-23T20:24:58.027Z,23.23
2019-02-23T20:27:28.982Z,22.50
2019-02-23T20:29:59.738Z,22.67
2019-02-23T20:32:30.762Z,21.87
2019-02-23T20:35:01.486Z,23.97
2019-02-23T20:37:33.968Z,23.43
2019-02-23T20:40:04.711Z,21.57
2019-02-23T20:42:35.508Z,22.13
2019-02-23T20:45:06.113Z,22.83
2019-02-23T20:47:36.937Z,20.87
2019-02-23T20:50:08.874Z,22.40
2019-02-23T20:52:39.621Z,23.03
2019-02-23T20:55:10.188Z,22.80
2019-02-23T20:57:40.647Z,22.00
2019-02-23T21:00:12.044Z,20.27
2019-02-23T21:02:42.757Z,24.00
2019-02-23T21:05:13.575Z,21.07
2019-02-23T21:07:44.723Z,21.57
2019-02-23T21:10:18.077Z,19.60
2019-02-23T21:12:48.717Z,21.87
2019-02-23T21:15:19.605Z,23.03
2019-02-23T21:17:50.657Z,20.33
2019-02-23T21:20:21.037Z,23.47
2019-02-23T21:22:51.690Z,22.23
2019-02-23T21:25:23.592Z,23.77
2019-02-23T21:27:53.930Z,23.80
2019-02-23T21:30:25.727Z,24.67
2019-02-23T21:32:56.609Z,82.30
2019-02-23T21:35:28.631Z,91.17
2019-02-23T21:37:59.427Z,47.53
2019-02-23T21:40:32.597Z,26.07
2019-02-23T21:43:03.529Z,30.93
2019-02-23T21:45:34.101Z,29.10
2019-02-23T21:48:04.811Z,35.03
2019-02-23T21:50:35.607Z,29.47
2019-02-23T21:53:06.433Z,25.03
2019-02-23T21:55:37.190Z,22.13
2019-02-23T21:58:08.189Z,25.13
2019-02-23T22:00:38.860Z,28.07
2019-02-23T22:03:09.567Z,24.37
2019-02-23T22:05:40.399Z,25.70
2019-02-23T22:08:11.080Z,23.77
2019-02-23T22:10:41.581Z,21.80
2019-02-23T22:13:12.053Z,26.33
2019-02-23T22:15:42.487Z,28.47
2019-02-23T22:18:13.257Z,23.30
2019-02-23T22:20:43.983Z,24.13
2019-02-23T22:23:14.741Z,26.00
2019-02-23T22:25:45.546Z,24.03
2019-02-23T22:28:16.272Z,24.03
2019-02-23T22:30:47.033Z,25.27
2019-02-23T22:33:17.554Z,22.63
2019-02-23T22:35:48.045Z,29.20
2019-02-23T22:38:18.754Z,27.17
2019-02-23T22:40:49.368Z,30.60
2019-02-23T22:43:19.763Z,27.77
2019-02-23T22:45:50.301Z,28.63
2019-02-23T22:48:20.627Z,23.87
2019-02-23T22:50:51.130Z,27.50
2019-02-23T22:53:21.827Z,25.93
2019-02-23T22:55:52.622Z,26.33
2019-02-23T22:58:23.003Z,29.63
2019-02-23T23:00:58.965Z,27.63
2019-02-23T23:03:29.391Z,27.30
2019-02-23T23:06:01.147Z,27.83
2019-02-23T23:08:32.096Z,28.53
2019-02-23T23:11:02.554Z,26.90
2019-02-23T23:13:32.818Z,27.17
2019-02-23T23:16:03.327Z,23.33
2019-02-23T23:18:33.980Z,25.07
2019-02-23T23:21:04.532Z,26.40
2019-02-23T23:23:34.962Z,25.73
2019-02-23T23:26:05.457Z,23.37
2019-02-23T23:28:35.949Z,24.13
2019-02-23T23:31:06.347Z,28.13
2019-02-23T23:33:37.203Z,24.17
2019-02-23T23:36:08.147Z,25.27
2019-02-23T23:38:38.551Z,26.70
2019-02-23T23:41:09.515Z,25.67
2019-02-23T23:43:39.939Z,26.43
2019-02-23T23:46:10.415Z,26.00
2019-02-23T23:48:41.118Z,24.27
2019-02-23T23:51:11.591Z,24.67
2019-02-23T23:53:45.057Z,23.80
2019-02-23T23:56:15.763Z,21.10
2019-02-23T23:58:46.371Z,24.07
